Weather at Pribram Airport

Public forecast

Using degrees Celsius for public forecast. Weather courtesy of forecast.io.

Closest aviation weather report (METAR) to Pribram Airport

Closest report is Václav Havel Airport Prague, 23.7 nm (43.8 km) NNE. Retrieved 2021/01/20 11:30 UTC (4 minutes ago):

LKPR 201130Z 20009KT CAVOK 05/M01 Q1009 NOSIG

Closest aviation forecast (TAF) to Pribram Airport

Closest forecast is Václav Havel Airport Prague, 23.7 nm (43.8 km) NNE. Retrieved 2021/01/20 06:03 UTC (6 hours ago):

TAF LKPR 200500Z 2006/2112 21015KT CAVOK BECMG 2023/2101 VRB02KT 5000 BR SCT004 BECMG 2101/2103 14003KT 1100 BR BKN003 TEMPO 2103/2108 0600 FZFG BKN001 BECMG 2109/2111 8000 NSC